createdAt,value
2024-02-19T00:01:06.577Z,2.12
2024-02-19T00:03:34.797Z,2.19
2024-02-19T00:06:02.225Z,2.24
2024-02-19T00:08:29.641Z,2.24
2024-02-19T00:10:57.432Z,2.20
2024-02-19T00:13:25.135Z,2.16
2024-02-19T00:15:52.668Z,2.10
2024-02-19T00:18:20.501Z,2.04
2024-02-19T00:20:50.210Z,2.09
2024-02-19T00:23:17.760Z,2.07
2024-02-19T00:25:45.851Z,2.14
2024-02-19T00:28:13.560Z,2.15
2024-02-19T00:30:41.103Z,1.99
2024-02-19T00:33:09.731Z,1.96
2024-02-19T00:35:37.337Z,2.04
2024-02-19T00:38:05.385Z,2.08
2024-02-19T00:40:34.009Z,1.88
2024-02-19T00:43:01.413Z,1.87
2024-02-19T00:45:28.872Z,1.88
2024-02-19T00:47:56.689Z,1.82
2024-02-19T00:50:24.113Z,1.80
2024-02-19T00:52:53.810Z,1.83
2024-02-19T00:55:24.711Z,1.76
2024-02-19T00:57:52.213Z,1.51
2024-02-19T01:00:19.895Z,1.50
2024-02-19T01:02:47.833Z,1.51
2024-02-19T01:05:15.680Z,1.53
2024-02-19T01:07:43.243Z,1.32
2024-02-19T01:10:11.027Z,1.23
2024-02-19T01:12:39.548Z,1.30
2024-02-19T01:15:07.483Z,1.34
2024-02-19T01:17:35.256Z,1.27
2024-02-19T01:20:03.353Z,1.33
2024-02-19T01:22:32.972Z,1.36
2024-02-19T01:25:01.412Z,1.33
2024-02-19T01:27:29.885Z,1.31
2024-02-19T01:29:57.533Z,1.35
2024-02-19T01:32:25.342Z,1.24
2024-02-19T01:34:53.310Z,1.07
2024-02-19T01:37:22.027Z,1.20
2024-02-19T01:39:49.858Z,1.21
2024-02-19T01:42:17.292Z,1.08
2024-02-19T01:44:44.779Z,0.95
2024-02-19T01:47:12.624Z,0.54
2024-02-19T01:49:40.214Z,0.65
2024-02-19T01:52:08.188Z,0.73
2024-02-19T01:54:37.106Z,0.83
2024-02-19T01:57:04.634Z,0.88
2024-02-19T01:59:35.644Z,0.60
2024-02-19T02:02:03.917Z,0.74
2024-02-19T02:04:31.678Z,0.73
2024-02-19T02:06:59.112Z,0.66
2024-02-19T02:09:26.666Z,0.62
2024-02-19T02:11:54.457Z,0.69
2024-02-19T02:14:22.002Z,0.75
2024-02-19T02:16:50.064Z,0.81
2024-02-19T02:19:17.900Z,0.70
2024-02-19T02:21:45.836Z,0.71
2024-02-19T02:24:13.499Z,0.75
2024-02-19T02:26:41.308Z,0.67
2024-02-19T02:29:08.892Z,0.74
2024-02-19T02:31:36.354Z,0.62
2024-02-19T02:34:06.298Z,0.64
2024-02-19T02:36:34.536Z,0.61
2024-02-19T02:39:02.086Z,0.55
2024-02-19T02:41:29.833Z,0.58
2024-02-19T02:43:57.308Z,0.63
2024-02-19T02:46:25.223Z,0.67
2024-02-19T02:48:53.448Z,0.67
2024-02-19T02:51:21.042Z,0.59
2024-02-19T02:53:48.542Z,0.62
2024-02-19T02:56:22.416Z,0.48
2024-02-19T02:58:50.907Z,0.52
2024-02-19T03:01:21.277Z,0.55
2024-02-19T03:03:48.916Z,0.56
2024-02-19T03:06:16.517Z,0.48
2024-02-19T03:08:45.047Z,0.38
2024-02-19T03:11:13.701Z,0.49
2024-02-19T03:13:41.325Z,0.55
2024-02-19T03:16:09.367Z,0.39
2024-02-19T03:18:37.011Z,0.39
2024-02-19T03:21:09.367Z,0.41
2024-02-19T03:23:37.213Z,0.20
2024-02-19T03:26:05.695Z,0.14
2024-02-19T03:28:34.167Z,0.16
2024-02-19T03:31:02.006Z,0.11
2024-02-19T03:33:29.759Z,0.21
2024-02-19T03:35:57.257Z,0.24
2024-02-19T03:38:25.731Z,0.29
2024-02-19T03:40:53.119Z,0.26
2024-02-19T03:43:20.640Z,0.15
2024-02-19T03:45:48.531Z,0.00
2024-02-19T03:48:16.054Z,-0.06
2024-02-19T03:50:43.607Z,-0.14
2024-02-19T03:53:11.630Z,-0.08
2024-02-19T03:55:39.088Z,-0.17
2024-02-19T03:58:07.197Z,-0.06
2024-02-19T04:00:35.168Z,-0.20
2024-02-19T04:03:03.311Z,-0.24
2024-02-19T04:05:30.913Z,-0.40
2024-02-19T04:08:00.676Z,-0.40
2024-02-19T04:10:28.417Z,-0.49
2024-02-19T04:12:55.864Z,-0.54
2024-02-19T04:15:23.437Z,-0.58
2024-02-19T04:17:51.354Z,-0.60
2024-02-19T04:20:18.924Z,-0.51
2024-02-19T04:22:46.394Z,-0.45
2024-02-19T04:25:14.922Z,-0.35
2024-02-19T04:27:42.405Z,-0.29
2024-02-19T04:30:10.263Z,-0.35
2024-02-19T04:32:38.228Z,-0.29
2024-02-19T04:35:06.085Z,-0.27
2024-02-19T04:37:33.616Z,-0.31
2024-02-19T04:40:01.946Z,-0.58
2024-02-19T04:42:29.614Z,-0.67
2024-02-19T04:44:59.378Z,-0.51
2024-02-19T04:47:27.114Z,-0.41
2024-02-19T04:49:54.677Z,-0.35
2024-02-19T04:52:22.229Z,-0.26
2024-02-19T04:54:50.079Z,-0.19
2024-02-19T04:57:17.533Z,-0.16
2024-02-19T04:59:44.946Z,-0.25
2024-02-19T05:02:13.173Z,-0.21
2024-02-19T05:04:41.344Z,-0.20
2024-02-19T05:07:09.089Z,-0.19
2024-02-19T05:09:37.240Z,-0.32
2024-02-19T05:12:05.349Z,-0.38
2024-02-19T05:14:32.944Z,-0.41
2024-02-19T05:17:01.779Z,-0.40
2024-02-19T05:19:29.400Z,-0.49
2024-02-19T05:21:57.124Z,-0.55
2024-02-19T05:24:25.005Z,-0.54
2024-02-19T05:26:52.500Z,-0.48
2024-02-19T05:29:20.881Z,-0.39
2024-02-19T05:31:48.837Z,-0.33
2024-02-19T05:34:16.956Z,-0.42
2024-02-19T05:36:44.502Z,-0.65
2024-02-19T05:39:14.984Z,-0.93
2024-02-19T05:41:42.550Z,-1.09
2024-02-19T05:44:11.099Z,-0.87
2024-02-19T05:46:57.638Z,-0.84
2024-02-19T05:49:25.257Z,-0.71
2024-02-19T05:51:53.801Z,-0.78
2024-02-19T05:54:24.408Z,-0.12
2024-02-19T05:56:51.912Z,0.66
2024-02-19T05:59:19.764Z,1.47
2024-02-19T06:01:47.340Z,2.33
2024-02-19T06:04:18.653Z,2.92
2024-02-19T06:06:46.441Z,3.04
2024-02-19T06:09:13.970Z,3.37
2024-02-19T06:11:45.467Z,3.62
2024-02-19T06:14:13.095Z,3.88
2024-02-19T06:16:40.554Z,4.18
2024-02-19T06:19:09.934Z,4.35
2024-02-19T06:21:37.795Z,4.52
2024-02-19T06:24:05.729Z,4.65
2024-02-19T06:26:33.458Z,4.83
2024-02-19T06:29:01.086Z,4.92
2024-02-19T06:31:29.600Z,5.13
2024-02-19T06:33:59.976Z,5.23
2024-02-19T06:36:27.533Z,5.22
2024-02-19T06:38:57.442Z,5.19
2024-02-19T06:41:28.269Z,5.15
2024-02-19T06:43:55.721Z,4.97
2024-02-19T06:46:25.406Z,4.55
2024-02-19T06:48:53.262Z,4.46
2024-02-19T06:51:23.644Z,4.70
2024-02-19T06:53:51.909Z,4.93
2024-02-19T06:56:19.702Z,5.18
2024-02-19T06:58:54.586Z,5.12
2024-02-19T07:01:22.727Z,4.90
2024-02-19T07:03:53.192Z,4.45
2024-02-19T07:06:20.824Z,3.96
2024-02-19T07:08:48.939Z,3.88
2024-02-19T07:11:16.424Z,3.79
2024-02-19T07:13:44.368Z,3.76
2024-02-19T07:16:12.187Z,3.61
2024-02-19T07:18:40.030Z,3.68
2024-02-19T07:21:07.775Z,3.76
2024-02-19T07:23:36.470Z,4.12
2024-02-19T07:26:04.499Z,4.36
2024-02-19T07:28:32.344Z,4.30
2024-02-19T07:31:00.480Z,4.11
2024-02-19T07:33:28.979Z,3.91
2024-02-19T07:35:58.841Z,3.65
2024-02-19T07:38:26.658Z,3.96
2024-02-19T07:41:01.293Z,4.10
2024-02-19T07:43:29.310Z,4.37
2024-02-19T07:46:00.458Z,4.00
2024-02-19T07:48:28.051Z,4.19
2024-02-19T07:50:58.945Z,4.30
2024-02-19T07:53:28.644Z,4.29
2024-02-19T07:56:26.263Z,4.24
2024-02-19T07:58:56.276Z,4.37
2024-02-19T08:01:24.134Z,4.41
2024-02-19T08:03:52.112Z,4.51
2024-02-19T08:06:19.659Z,4.61
2024-02-19T08:08:47.249Z,4.69
2024-02-19T08:11:14.990Z,4.81
2024-02-19T08:13:43.234Z,4.86
2024-02-19T08:16:14.185Z,5.00
2024-02-19T08:18:42.484Z,5.14
2024-02-19T08:21:12.447Z,5.25
2024-02-19T08:23:39.950Z,5.40
2024-02-19T08:26:17.573Z,5.50
2024-02-19T08:28:47.903Z,5.73
2024-02-19T08:31:15.951Z,5.97
2024-02-19T08:33:43.875Z,6.27
2024-02-19T08:36:11.670Z,6.45
2024-02-19T08:38:45.875Z,6.51
2024-02-19T08:41:13.589Z,6.58
2024-02-19T08:43:41.431Z,6.66
2024-02-19T08:46:11.284Z,7.31
2024-02-19T08:48:38.955Z,7.27
2024-02-19T08:51:07.088Z,7.42
2024-02-19T08:53:34.650Z,8.07
2024-02-19T08:56:02.150Z,8.31
2024-02-19T08:58:32.235Z,8.34
2024-02-19T09:01:00.959Z,8.75
2024-02-19T09:03:33.328Z,8.79
2024-02-19T09:06:01.195Z,8.46
2024-02-19T09:08:28.757Z,8.55
2024-02-19T09:10:56.778Z,8.72
2024-02-19T09:13:24.669Z,8.64
2024-02-19T09:15:53.946Z,8.69
2024-02-19T09:18:21.614Z,9.21
2024-02-19T09:20:49.688Z,9.66
2024-02-19T09:23:19.474Z,10.24
2024-02-19T09:25:46.935Z,9.90
2024-02-19T09:28:17.150Z,9.86
2024-02-19T09:30:47.073Z,9.85
2024-02-19T09:33:17.143Z,9.81
2024-02-19T09:35:45.022Z,10.43
2024-02-19T09:38:12.495Z,10.50
2024-02-19T09:40:40.262Z,10.55
2024-02-19T09:43:10.448Z,10.71
2024-02-19T09:45:38.374Z,10.83
2024-02-19T09:48:07.300Z,10.37
2024-02-19T09:50:35.842Z,10.55
2024-02-19T09:53:11.629Z,10.88
2024-02-19T09:55:40.124Z,10.84
2024-02-19T09:58:08.355Z,11.16
2024-02-19T10:00:38.548Z,11.07
2024-02-19T10:03:08.482Z,11.22
2024-02-19T10:05:36.275Z,11.24
2024-02-19T10:08:10.166Z,11.28
2024-02-19T10:10:43.030Z,11.86
2024-02-19T10:13:12.340Z,11.81
2024-02-19T10:15:43.034Z,12.10
2024-02-19T10:18:19.718Z,11.57
2024-02-19T10:20:55.387Z,11.53
2024-02-19T10:23:25.178Z,11.52
2024-02-19T10:25:54.594Z,11.46
2024-02-19T10:28:25.972Z,11.61
2024-02-19T10:30:58.633Z,11.34
2024-02-19T10:33:37.224Z,11.36
2024-02-19T10:36:07.540Z,11.25
2024-02-19T10:38:37.409Z,11.65
2024-02-19T10:41:05.301Z,11.98
2024-02-19T10:43:36.643Z,12.01
2024-02-19T10:46:05.876Z,12.02
2024-02-19T10:48:36.192Z,12.07
2024-02-19T10:51:06.712Z,12.08
2024-02-19T10:53:34.471Z,12.02
2024-02-19T10:56:19.023Z,12.24
2024-02-19T10:58:57.171Z,11.97
2024-02-19T11:01:25.336Z,12.23
2024-02-19T11:03:53.589Z,12.07
2024-02-19T11:06:24.258Z,12.04
2024-02-19T11:08:57.300Z,12.18
2024-02-19T11:11:25.605Z,12.24
2024-02-19T11:13:53.234Z,11.86
2024-02-19T11:16:20.934Z,11.84
2024-02-19T11:18:55.456Z,12.17
2024-02-19T11:21:23.316Z,12.03
2024-02-19T11:23:52.237Z,12.08
2024-02-19T11:26:22.809Z,12.28
2024-02-19T11:28:55.762Z,12.16
2024-02-19T11:31:24.010Z,12.41
2024-02-19T11:33:59.326Z,12.45
2024-02-19T11:36:27.362Z,12.92
2024-02-19T11:38:56.809Z,12.99
2024-02-19T11:41:26.925Z,13.08
2024-02-19T11:43:56.412Z,13.14
2024-02-19T11:46:32.629Z,13.22
2024-02-19T11:49:00.610Z,13.23
2024-02-19T11:51:30.585Z,13.26
2024-02-19T11:54:02.918Z,13.02
2024-02-19T11:56:44.368Z,13.25
2024-02-19T11:59:12.200Z,13.29
2024-02-19T12:01:40.274Z,12.83
2024-02-19T12:04:10.717Z,13.06
2024-02-19T12:06:41.784Z,12.67
2024-02-19T12:09:10.040Z,12.83
2024-02-19T12:11:41.320Z,12.91
2024-02-19T12:14:11.400Z,12.66
2024-02-19T12:16:38.886Z,12.80
2024-02-19T12:19:13.693Z,13.01
2024-02-19T12:21:44.095Z,12.66
2024-02-19T12:24:12.308Z,12.60
2024-02-19T12:26:39.847Z,12.61
2024-02-19T12:29:08.121Z,12.61
2024-02-19T12:31:36.482Z,12.55
2024-02-19T12:34:05.574Z,12.51
2024-02-19T12:36:35.614Z,12.53
2024-02-19T12:39:04.195Z,12.34
2024-02-19T12:41:31.633Z,12.89
2024-02-19T12:43:59.550Z,12.94
2024-02-19T12:46:27.144Z,12.31
2024-02-19T12:48:59.241Z,12.33
2024-02-19T12:51:34.750Z,12.55
2024-02-19T12:54:06.019Z,12.49
2024-02-19T12:56:33.933Z,12.55
2024-02-19T12:59:01.534Z,12.66
2024-02-19T13:01:32.652Z,12.63
2024-02-19T13:04:02.918Z,12.70
2024-02-19T13:06:31.551Z,12.42
2024-02-19T13:08:59.884Z,12.56
2024-02-19T13:11:35.446Z,12.73
2024-02-19T13:14:04.038Z,12.76
2024-02-19T13:16:36.548Z,12.59
2024-02-19T13:19:04.339Z,12.92
2024-02-19T13:21:34.732Z,12.84
2024-02-19T13:24:02.362Z,12.81
2024-02-19T13:26:29.902Z,12.71
2024-02-19T13:28:58.079Z,13.01
2024-02-19T13:31:25.689Z,12.48
2024-02-19T13:33:53.293Z,12.57
2024-02-19T13:36:24.306Z,12.60
2024-02-19T13:38:59.294Z,12.49
2024-02-19T13:41:29.795Z,12.48
2024-02-19T13:43:57.505Z,12.70
2024-02-19T13:46:27.393Z,13.17
2024-02-19T13:49:02.137Z,12.82
2024-02-19T13:51:29.938Z,12.95
2024-02-19T13:54:07.458Z,12.79
2024-02-19T13:56:37.446Z,13.03
2024-02-19T13:59:08.227Z,12.84
2024-02-19T14:01:39.364Z,12.72
2024-02-19T14:04:09.187Z,12.46
2024-02-19T14:06:36.976Z,12.36
2024-02-19T14:09:07.496Z,12.58
2024-02-19T14:11:35.805Z,12.59
2024-02-19T14:14:04.785Z,12.73
2024-02-19T14:16:33.366Z,12.58
2024-02-19T14:19:01.745Z,12.46
2024-02-19T14:21:29.807Z,12.30
2024-02-19T14:23:59.770Z,12.28
2024-02-19T14:26:29.867Z,12.32
2024-02-19T14:29:05.104Z,12.36
2024-02-19T14:31:34.026Z,12.47
2024-02-19T14:34:01.866Z,12.42
2024-02-19T14:36:29.991Z,12.08
2024-02-19T14:39:00.447Z,12.21
2024-02-19T14:41:27.979Z,12.19
2024-02-19T14:43:56.109Z,12.16
2024-02-19T14:46:26.393Z,12.15
2024-02-19T14:48:54.218Z,12.03
2024-02-19T14:51:24.644Z,12.07
2024-02-19T14:53:55.428Z,12.04
2024-02-19T14:56:23.145Z,11.96
2024-02-19T14:58:50.720Z,12.00
2024-02-19T15:01:20.844Z,11.91
2024-02-19T15:03:48.514Z,11.90
2024-02-19T15:06:16.108Z,11.89
2024-02-19T15:08:43.975Z,11.87
2024-02-19T15:11:11.511Z,11.81
2024-02-19T15:13:39.000Z,11.73
2024-02-19T15:16:25.591Z,11.74
2024-02-19T15:18:53.238Z,11.69
2024-02-19T15:21:22.197Z,11.69
2024-02-19T15:23:49.619Z,11.61
2024-02-19T15:26:17.271Z,11.59
2024-02-19T15:28:45.098Z,11.57
2024-02-19T15:31:13.850Z,11.57
2024-02-19T15:33:41.688Z,11.55
2024-02-19T15:36:12.940Z,11.53
2024-02-19T15:38:46.926Z,11.51
2024-02-19T15:41:17.541Z,11.52
2024-02-19T15:43:45.064Z,11.45
2024-02-19T15:46:12.530Z,11.38
2024-02-19T15:48:40.383Z,11.39
2024-02-19T15:51:07.987Z,11.32
2024-02-19T15:53:35.792Z,11.33
2024-02-19T15:56:05.120Z,11.24
2024-02-19T15:58:32.902Z,11.07
2024-02-19T16:01:00.596Z,11.10
2024-02-19T16:03:29.585Z,11.04
2024-02-19T16:06:01.039Z,10.99
2024-02-19T16:08:35.137Z,11.02
2024-02-19T16:11:04.528Z,10.94
2024-02-19T16:13:33.651Z,10.82
2024-02-19T16:16:03.681Z,10.79
2024-02-19T16:18:31.805Z,10.74
2024-02-19T16:21:00.883Z,10.69
2024-02-19T16:23:30.331Z,10.63
2024-02-19T16:25:59.333Z,10.58
2024-02-19T16:28:27.367Z,10.53
2024-02-19T16:30:55.576Z,10.49
2024-02-19T16:33:23.592Z,10.45
2024-02-19T16:35:51.706Z,10.44
2024-02-19T16:38:19.287Z,10.35
2024-02-19T16:40:47.790Z,10.38
2024-02-19T16:43:15.645Z,10.36
2024-02-19T16:45:43.353Z,10.34
2024-02-19T16:48:15.181Z,10.32
2024-02-19T16:50:43.954Z,10.35
2024-02-19T16:53:11.950Z,10.32
2024-02-19T16:55:43.589Z,10.32
2024-02-19T16:58:15.945Z,10.29
2024-02-19T17:00:45.140Z,10.26
2024-02-19T17:03:15.085Z,10.23
2024-02-19T17:05:42.781Z,10.21
2024-02-19T17:08:10.476Z,10.14
2024-02-19T17:10:40.108Z,10.13
2024-02-19T17:13:07.725Z,10.13
2024-02-19T17:15:35.176Z,10.08
2024-02-19T17:18:04.025Z,10.08
2024-02-19T17:20:33.251Z,9.99
2024-02-19T17:23:01.058Z,9.87
2024-02-19T17:25:30.739Z,9.86
2024-02-19T17:27:58.311Z,9.84
2024-02-19T17:30:27.146Z,9.78
2024-02-19T17:32:55.000Z,9.71
2024-02-19T17:35:24.311Z,9.68
2024-02-19T17:37:52.069Z,9.60
2024-02-19T17:40:19.882Z,9.50
2024-02-19T17:42:48.791Z,9.44
2024-02-19T17:45:16.679Z,9.34
2024-02-19T17:47:44.812Z,9.32
2024-02-19T17:50:12.372Z,9.20
2024-02-19T17:52:40.071Z,9.12
2024-02-19T17:55:10.195Z,9.11
2024-02-19T17:57:37.707Z,9.06
2024-02-19T18:00:06.297Z,8.99
2024-02-19T18:02:39.467Z,8.96
2024-02-19T18:05:07.620Z,8.93
2024-02-19T18:07:36.012Z,8.95
2024-02-19T18:10:05.106Z,8.82
2024-02-19T18:12:33.396Z,8.77
2024-02-19T18:15:01.087Z,8.70
2024-02-19T18:17:28.599Z,8.71
2024-02-19T18:19:56.547Z,8.68
2024-02-19T18:22:24.248Z,8.69
2024-02-19T18:24:53.032Z,8.68
2024-02-19T18:27:22.070Z,8.61
2024-02-19T18:29:49.781Z,8.59
2024-02-19T18:32:19.240Z,8.58
2024-02-19T18:34:48.122Z,8.55
2024-02-19T18:37:16.043Z,8.57
2024-02-19T18:39:43.547Z,8.54
2024-02-19T18:42:12.849Z,8.52
2024-02-19T18:44:40.335Z,8.54
2024-02-19T18:47:08.117Z,8.54
2024-02-19T18:49:37.138Z,8.53
2024-02-19T18:52:04.949Z,8.53
2024-02-19T18:54:33.378Z,8.52
2024-02-19T18:57:02.361Z,8.53
2024-02-19T18:59:32.020Z,8.50
2024-02-19T19:02:04.548Z,8.49
2024-02-19T19:04:32.782Z,8.47
2024-02-19T19:07:01.369Z,8.46
2024-02-19T19:09:29.101Z,8.43
2024-02-19T19:11:57.605Z,8.42
2024-02-19T19:14:25.434Z,8.39
2024-02-19T19:16:53.234Z,8.34
2024-02-19T19:19:21.474Z,8.36
2024-02-19T19:21:49.271Z,8.20
2024-02-19T19:24:16.757Z,8.27
2024-02-19T19:26:45.696Z,8.15
2024-02-19T19:29:13.328Z,8.12
2024-02-19T19:31:40.955Z,8.06
2024-02-19T19:34:09.801Z,7.96
2024-02-19T19:36:37.805Z,7.97
2024-02-19T19:39:06.606Z,7.84
2024-02-19T19:41:36.440Z,7.74
2024-02-19T19:44:06.319Z,7.66
2024-02-19T19:46:37.260Z,7.61
2024-02-19T19:49:06.030Z,7.68
2024-02-19T19:51:33.618Z,7.56
2024-02-19T19:54:01.167Z,7.56
2024-02-19T19:56:29.231Z,7.59
2024-02-19T19:58:59.358Z,7.43
2024-02-19T20:01:27.435Z,7.51
2024-02-19T20:03:55.568Z,7.44
2024-02-19T20:06:23.288Z,7.40
2024-02-19T20:08:52.835Z,7.43
2024-02-19T20:11:22.682Z,7.42
2024-02-19T20:13:50.788Z,7.38
2024-02-19T20:16:19.612Z,7.32
2024-02-19T20:18:47.607Z,7.35
2024-02-19T20:21:17.522Z,7.36
2024-02-19T20:23:46.027Z,7.37
2024-02-19T20:26:14.468Z,7.42
2024-02-19T20:28:41.951Z,7.38
2024-02-19T20:31:09.449Z,7.38
2024-02-19T20:33:37.484Z,7.43
2024-02-19T20:36:05.546Z,7.42
2024-02-19T20:38:33.232Z,7.29
2024-02-19T20:41:01.563Z,7.34
2024-02-19T20:43:29.127Z,7.41
2024-02-19T20:45:56.767Z,7.43
2024-02-19T20:48:24.719Z,7.41
2024-02-19T20:50:52.301Z,7.35
2024-02-19T20:53:19.733Z,7.39
2024-02-19T20:55:47.674Z,7.34
2024-02-19T20:58:16.374Z,7.33
2024-02-19T21:00:44.016Z,7.31
2024-02-19T21:03:11.859Z,7.35
2024-02-19T21:05:41.792Z,7.32
2024-02-19T21:08:10.933Z,7.34
2024-02-19T21:10:41.082Z,7.33
2024-02-19T21:13:08.823Z,7.32
2024-02-19T21:15:36.378Z,7.28
2024-02-19T21:18:09.210Z,7.29
2024-02-19T21:20:37.081Z,7.24
2024-02-19T21:23:05.133Z,7.23
2024-02-19T21:25:32.907Z,7.25
2024-02-19T21:28:00.570Z,7.21
2024-02-19T21:30:28.449Z,7.23
2024-02-19T21:32:55.989Z,7.25
2024-02-19T21:35:23.699Z,7.22
2024-02-19T21:37:51.497Z,7.24
2024-02-19T21:40:20.195Z,7.16
2024-02-19T21:42:48.193Z,7.19
2024-02-19T21:45:17.499Z,7.24
2024-02-19T21:47:45.458Z,7.21
2024-02-19T21:50:13.509Z,7.22
2024-02-19T21:52:42.270Z,7.23
2024-02-19T21:55:10.630Z,7.19
2024-02-19T21:57:39.012Z,7.19
2024-02-19T22:00:09.050Z,7.17
2024-02-19T22:02:37.268Z,7.16
2024-02-19T22:05:05.450Z,7.14
2024-02-19T22:07:33.572Z,7.08
2024-02-19T22:10:03.136Z,7.02
2024-02-19T22:12:31.271Z,7.08
2024-02-19T22:14:59.617Z,7.06
2024-02-19T22:17:29.628Z,7.04
2024-02-19T22:19:57.672Z,7.01
2024-02-19T22:22:25.633Z,7.02
2024-02-19T22:24:53.549Z,7.00
2024-02-19T22:27:21.646Z,7.00
2024-02-19T22:29:49.149Z,6.98
2024-02-19T22:32:16.863Z,6.98
2024-02-19T22:34:46.639Z,6.96
2024-02-19T22:37:17.601Z,6.95
2024-02-19T22:39:46.197Z,6.92
2024-02-19T22:42:14.166Z,6.91
2024-02-19T22:44:41.939Z,6.90
2024-02-19T22:47:09.574Z,6.89
2024-02-19T22:49:39.271Z,6.86
2024-02-19T22:52:07.979Z,6.87
2024-02-19T22:54:38.142Z,6.87
2024-02-19T22:57:06.164Z,6.84
2024-02-19T22:59:34.059Z,6.82
2024-02-19T23:02:01.960Z,6.84
2024-02-19T23:04:29.554Z,6.84
2024-02-19T23:06:57.356Z,6.85
2024-02-19T23:09:25.198Z,6.82
2024-02-19T23:11:52.877Z,6.79
2024-02-19T23:14:20.353Z,6.80
2024-02-19T23:16:48.131Z,6.83
2024-02-19T23:19:15.884Z,6.82
2024-02-19T23:21:44.022Z,6.75
2024-02-19T23:24:11.713Z,6.74
2024-02-19T23:26:39.217Z,6.66
2024-02-19T23:29:06.811Z,6.68
2024-02-19T23:31:34.752Z,6.67
2024-02-19T23:34:02.387Z,6.66
2024-02-19T23:36:30.357Z,6.66
2024-02-19T23:38:58.110Z,6.64
2024-02-19T23:41:25.589Z,6.61
2024-02-19T23:43:53.201Z,6.59
2024-02-19T23:46:21.005Z,6.58
2024-02-19T23:48:48.794Z,6.59
2024-02-19T23:51:16.367Z,6.54
2024-02-19T23:53:44.169Z,6.57
2024-02-19T23:56:30.368Z,6.49
2024-02-19T23:58:58.087Z,6.48
